Hosford, FL (32334)

3:06 PM EDT on July 27, 2016 (GMT -0400)
LAKE TALQUIN | | Change Station

Elev 75 ft 30.40 °N, 84.63 °W | Updated 8 seconds ago

Mostly Cloudy
Mostly Cloudy
94.1 °F
Feels Like 107 °F
N
8.3
Wind Variable Wind from SSW

Today
High -- | Low -- °F
--% Chance of Precip.
Yesterday
High -- | Low -- °F
Precip. -- in
Pressure 30.05 in
Visibility 10.0 miles
Clouds Mostly Cloudy 5000 ft
Heat Index 107 °F
Dew Point 76 °F
Humidity 55%
Rainfall 0.02 in
Snow Depth Not available.
6:55 AM 8:35 PM
Last Quarter, 40% visible
METAR KTLH 271853Z 16005KT 10SM BKN050CB 34/23 A3006 RMK AO2 SLP176 CB S MOV NE T03390233
Pressure 30.05 in
Visibility 10.0 miles
Clouds Mostly Cloudy 5000 ft
Heat Index 107 °F
Dew Point 76 °F
Humidity 55%
Rainfall 0.02 in
Snow Depth Not available.
6:55 AM 8:35 PM
Last Quarter, 40% visible
METAR KTLH 271853Z 16005KT 10SM BKN050CB 34/23 A3006 RMK AO2 SLP176 CB S MOV NE T03390233

10-Day Weather Forecast

Almanac

Astronomy

Jul. 27, 2016 Rise Set
Actual Time
Civil Twilight
Nautical Twilight
Astronomical Twilight
Moon
Length of Visible Light
Length of Day
Tomorrow will be .
, % of the Moon is Illuminated

Today's Extremes

State Highs State Lows

Community

WunderPhotos

Upload Photos

1,927,898 photos uploaded!

WunderBlog® & News

Nearby

Air Quality

  Air Quality AQ Index Pollutant
Not available.

Snow Depth

Station Depth Elevation

Earthquake Activity

City Distance Mag. Time & Date
Minimum magnitude displayed is 2.5.

Coastal Water Temperatures

Place Temperature

Stations

Nearby Weather Stations

Station Location Temp. Windchill Dew Point Humidity Wind Precip. Elev Updated Type
                   

Watches & Warnings

There are currently no watches in effect.